Portada
METAR-TAF:

METAR-TAF

Aeropuertos :

Aeropuerto Internacional de Damasco

Damasco, Siria

latitud: 33-25N, longitud: 036-31E, altitud: 608 m

Observación

El informe se hizo hace 1 hora y 4 minutos, a las 21:00 UTC
Viento 5 kt del oeste-suroeste
Temperatura 21°C
Humedad 28%
Presión 1014 hPa
Visibilidad 10 km o más
sin nubes por debajo de 1500 m y sin presencia de cumulonimbus.

METAR: OSDI 062100Z 25005KT CAVOK 21/02 Q1014

Hora: 01:04 (22:04 UTC)

Pronóstico

El informe se hizo hace 6 horas y 4 minutos, a las 16:00 UTC
Pronóstico válido del 06 a las 18 UTC al 07 a las 24 UTC
Viento 15 kt del oeste
Visibilidad 10 km o más
Escasas nubes a una altura de 3000 ft
Temporalmente
del 07 a las 12 UTC al 07 a las 18 UTC
Viento 15 kt del oeste con ráfagas de 25 kt

TAF: OSDI 061600Z 0618/0724 26015KT 9999 FEW030 TEMPO 0712/0718 26015G25KT

Observaciones y pronósticos meteorológicos de más de 4000 aeropuertos (mensajes METAR y TAF).

Los puntos amarillos y rojos representan las estaciones disponibles.

Ponga el ratón en el punto deseado para ver el nombre de la estación.

Haga clic para ver las observaciones y los pronósticos meteorológicos.

Para cambiar el mapa : haga clic en los botones verdes con una cruz de color negro para hacer un zoom, en el botón verde con un guión para alejar o en las flechas verdes para mapas adyacentes.


METAR-TAF: